sensor_id;sensor_type;location;lat;lon;timestamp;temperature;humidity
12180;DHT22;6153;51.490;6.586;2022-08-30T00:03:05;18.40;99.90
12180;DHT22;6153;51.490;6.586;2022-08-30T00:06:08;18.40;99.90
12180;DHT22;6153;51.490;6.586;2022-08-30T00:09:08;18.40;99.90
12180;DHT22;6153;51.490;6.586;2022-08-30T00:12:09;18.40;99.90
12180;DHT22;6153;51.490;6.586;2022-08-30T00:15:11;18.40;99.90
12180;DHT22;6153;51.490;6.586;2022-08-30T00:18:13;18.40;99.90
12180;DHT22;6153;51.490;6.586;2022-08-30T00:21:15;18.40;99.90
12180;DHT22;6153;51.490;6.586;2022-08-30T00:24:16;18.40;99.90
12180;DHT22;6153;51.490;6.586;2022-08-30T00:27:16;18.30;99.90
12180;DHT22;6153;51.490;6.586;2022-08-30T00:30:17;18.30;99.90
12180;DHT22;6153;51.490;6.586;2022-08-30T00:33:18;18.30;99.90
12180;DHT22;6153;51.490;6.586;2022-08-30T00:36:18;18.20;99.90
12180;DHT22;6153;51.490;6.586;2022-08-30T00:39:19;18.20;99.90
12180;DHT22;6153;51.490;6.586;2022-08-30T00:42:19;18.20;99.90
12180;DHT22;6153;51.490;6.586;2022-08-30T00:45:21;18.20;99.90
12180;DHT22;6153;51.490;6.586;2022-08-30T00:48:23;18.20;99.90
12180;DHT22;6153;51.490;6.586;2022-08-30T00:51:24;18.20;99.90
12180;DHT22;6153;51.490;6.586;2022-08-30T00:54:25;18.20;99.90
12180;DHT22;6153;51.490;6.586;2022-08-30T00:57:26;18.10;99.90
12180;DHT22;6153;51.490;6.586;2022-08-30T01:00:27;18.10;99.90
12180;DHT22;6153;51.490;6.586;2022-08-30T01:03:29;18.10;99.90
12180;DHT22;6153;51.490;6.586;2022-08-30T01:06:30;18.10;99.90
12180;DHT22;6153;51.490;6.586;2022-08-30T01:09:34;18.00;99.90
12180;DHT22;6153;51.490;6.586;2022-08-30T01:12:36;18.00;99.90
12180;DHT22;6153;51.490;6.586;2022-08-30T01:15:37;17.90;99.90
12180;DHT22;6153;51.490;6.586;2022-08-30T01:18:38;18.00;99.90
12180;DHT22;6153;51.490;6.586;2022-08-30T01:21:45;17.90;99.90
12180;DHT22;6153;51.490;6.586;2022-08-30T01:24:48;18.00;99.90
12180;DHT22;6153;51.490;6.586;2022-08-30T01:27:54;17.90;99.90
12180;DHT22;6153;51.490;6.586;2022-08-30T01:30:56;17.90;99.90
12180;DHT22;6153;51.490;6.586;2022-08-30T01:33:57;17.90;99.90
12180;DHT22;6153;51.490;6.586;2022-08-30T01:36:57;17.90;99.90
12180;DHT22;6153;51.490;6.586;2022-08-30T01:39:59;17.90;99.90
12180;DHT22;6153;51.490;6.586;2022-08-30T01:42:59;17.90;99.90
12180;DHT22;6153;51.490;6.586;2022-08-30T01:46:00;17.90;99.90
12180;DHT22;6153;51.490;6.586;2022-08-30T01:49:06;17.90;99.90
12180;DHT22;6153;51.490;6.586;2022-08-30T01:52:07;17.90;99.90
12180;DHT22;6153;51.490;6.586;2022-08-30T01:55:08;17.80;99.90
12180;DHT22;6153;51.490;6.586;2022-08-30T01:58:09;17.80;99.90
12180;DHT22;6153;51.490;6.586;2022-08-30T02:01:13;17.80;99.90
12180;DHT22;6153;51.490;6.586;2022-08-30T02:04:14;17.80;99.90
12180;DHT22;6153;51.490;6.586;2022-08-30T02:07:15;17.70;99.90
12180;DHT22;6153;51.490;6.586;2022-08-30T02:10:16;17.70;99.90
12180;DHT22;6153;51.490;6.586;2022-08-30T02:13:17;17.60;99.90
12180;DHT22;6153;51.490;6.586;2022-08-30T02:16:20;17.60;99.90
12180;DHT22;6153;51.490;6.586;2022-08-30T02:19:22;17.50;99.90
12180;DHT22;6153;51.490;6.586;2022-08-30T02:22:22;17.50;99.90
12180;DHT22;6153;51.490;6.586;2022-08-30T02:25:22;17.50;99.90
12180;DHT22;6153;51.490;6.586;2022-08-30T02:28:23;17.40;99.90
12180;DHT22;6153;51.490;6.586;2022-08-30T02:31:25;17.30;99.90
12180;DHT22;6153;51.490;6.586;2022-08-30T02:34:26;17.30;99.90
12180;DHT22;6153;51.490;6.586;2022-08-30T02:37:26;17.30;99.90
12180;DHT22;6153;51.490;6.586;2022-08-30T02:40:27;17.30;99.90
12180;DHT22;6153;51.490;6.586;2022-08-30T02:43:28;17.20;99.90
12180;DHT22;6153;51.490;6.586;2022-08-30T02:46:28;17.10;99.90
12180;DHT22;6153;51.490;6.586;2022-08-30T02:49:29;17.10;99.90
12180;DHT22;6153;51.490;6.586;2022-08-30T02:52:30;17.00;99.90
12180;DHT22;6153;51.490;6.586;2022-08-30T02:55:31;16.90;99.90
12180;DHT22;6153;51.490;6.586;2022-08-30T02:58:31;17.00;99.90
12180;DHT22;6153;51.490;6.586;2022-08-30T03:01:32;17.00;99.90
12180;DHT22;6153;51.490;6.586;2022-08-30T03:04:35;17.00;99.90
12180;DHT22;6153;51.490;6.586;2022-08-30T03:07:36;17.00;99.90
12180;DHT22;6153;51.490;6.586;2022-08-30T03:10:37;16.90;99.90
12180;DHT22;6153;51.490;6.586;2022-08-30T03:13:37;16.90;99.90
12180;DHT22;6153;51.490;6.586;2022-08-30T03:16:38;16.90;99.90
12180;DHT22;6153;51.490;6.586;2022-08-30T03:19:39;16.80;99.90
12180;DHT22;6153;51.490;6.586;2022-08-30T03:22:39;16.80;99.90
12180;DHT22;6153;51.490;6.586;2022-08-30T03:25:40;16.80;99.90
12180;DHT22;6153;51.490;6.586;2022-08-30T03:28:41;16.70;99.90
12180;DHT22;6153;51.490;6.586;2022-08-30T03:31:42;16.70;99.90
12180;DHT22;6153;51.490;6.586;2022-08-30T03:34:44;16.70;99.90
12180;DHT22;6153;51.490;6.586;2022-08-30T03:37:45;16.70;99.90
12180;DHT22;6153;51.490;6.586;2022-08-30T03:40:46;16.70;99.90
12180;DHT22;6153;51.490;6.586;2022-08-30T03:43:47;16.70;99.90
12180;DHT22;6153;51.490;6.586;2022-08-30T03:46:48;16.70;99.90
12180;DHT22;6153;51.490;6.586;2022-08-30T03:49:49;16.70;99.90
12180;DHT22;6153;51.490;6.586;2022-08-30T03:52:49;16.70;99.90
12180;DHT22;6153;51.490;6.586;2022-08-30T03:55:50;16.70;99.90
12180;DHT22;6153;51.490;6.586;2022-08-30T03:58:50;16.70;99.90
12180;DHT22;6153;51.490;6.586;2022-08-30T04:01:51;16.60;99.90
12180;DHT22;6153;51.490;6.586;2022-08-30T04:04:51;16.60;99.90
12180;DHT22;6153;51.490;6.586;2022-08-30T04:07:52;16.50;99.90
12180;DHT22;6153;51.490;6.586;2022-08-30T04:10:53;16.50;99.90
12180;DHT22;6153;51.490;6.586;2022-08-30T04:13:54;16.50;99.90
12180;DHT22;6153;51.490;6.586;2022-08-30T04:16:56;16.40;99.90
12180;DHT22;6153;51.490;6.586;2022-08-30T04:19:57;16.40;99.90
12180;DHT22;6153;51.490;6.586;2022-08-30T04:22:57;16.40;99.90
12180;DHT22;6153;51.490;6.586;2022-08-30T04:25:58;16.40;99.90
12180;DHT22;6153;51.490;6.586;2022-08-30T04:28:58;16.30;99.90
12180;DHT22;6153;51.490;6.586;2022-08-30T04:31:59;16.30;99.90
12180;DHT22;6153;51.490;6.586;2022-08-30T04:34:59;16.30;99.90
12180;DHT22;6153;51.490;6.586;2022-08-30T04:38:00;16.30;99.90
12180;DHT22;6153;51.490;6.586;2022-08-30T04:41:01;16.30;99.90
12180;DHT22;6153;51.490;6.586;2022-08-30T04:44:02;16.30;99.90
12180;DHT22;6153;51.490;6.586;2022-08-30T04:47:02;16.30;99.90
12180;DHT22;6153;51.490;6.586;2022-08-30T04:50:04;16.30;99.90
12180;DHT22;6153;51.490;6.586;2022-08-30T04:53:05;16.30;99.90
12180;DHT22;6153;51.490;6.586;2022-08-30T04:56:13;16.20;99.90
12180;DHT22;6153;51.490;6.586;2022-08-30T04:59:15;16.20;99.90
12180;DHT22;6153;51.490;6.586;2022-08-30T05:02:17;16.20;99.90
12180;DHT22;6153;51.490;6.586;2022-08-30T05:05:17;16.20;99.90
12180;DHT22;6153;51.490;6.586;2022-08-30T05:08:36;16.20;99.90
12180;DHT22;6153;51.490;6.586;2022-08-30T05:11:37;16.20;99.90
12180;DHT22;6153;51.490;6.586;2022-08-30T05:14:38;16.20;99.90
12180;DHT22;6153;51.490;6.586;2022-08-30T05:17:38;16.20;99.90
12180;DHT22;6153;51.490;6.586;2022-08-30T05:20:39;16.20;99.90
12180;DHT22;6153;51.490;6.586;2022-08-30T05:23:40;16.20;99.90
12180;DHT22;6153;51.490;6.586;2022-08-30T05:26:41;16.20;99.90
12180;DHT22;6153;51.490;6.586;2022-08-30T05:29:42;16.20;99.90
12180;DHT22;6153;51.490;6.586;2022-08-30T05:32:42;16.30;99.90
12180;DHT22;6153;51.490;6.586;2022-08-30T05:35:43;16.40;99.90
12180;DHT22;6153;51.490;6.586;2022-08-30T05:38:43;16.40;99.90
12180;DHT22;6153;51.490;6.586;2022-08-30T05:41:44;16.50;99.90
12180;DHT22;6153;51.490;6.586;2022-08-30T05:44:44;16.50;99.90
12180;DHT22;6153;51.490;6.586;2022-08-30T05:47:45;16.60;99.90
12180;DHT22;6153;51.490;6.586;2022-08-30T05:50:47;16.60;99.90
12180;DHT22;6153;51.490;6.586;2022-08-30T05:53:47;16.60;99.90
12180;DHT22;6153;51.490;6.586;2022-08-30T05:56:48;16.70;99.90
12180;DHT22;6153;51.490;6.586;2022-08-30T05:59:49;16.70;99.90
12180;DHT22;6153;51.490;6.586;2022-08-30T06:02:51;16.80;99.90
12180;DHT22;6153;51.490;6.586;2022-08-30T06:05:52;16.80;99.90
12180;DHT22;6153;51.490;6.586;2022-08-30T06:08:53;16.90;99.90
12180;DHT22;6153;51.490;6.586;2022-08-30T06:11:53;16.80;99.90
12180;DHT22;6153;51.490;6.586;2022-08-30T06:14:54;16.90;99.90
12180;DHT22;6153;51.490;6.586;2022-08-30T06:17:54;16.90;99.90
12180;DHT22;6153;51.490;6.586;2022-08-30T06:20:55;16.90;99.90
12180;DHT22;6153;51.490;6.586;2022-08-30T06:23:56;17.00;99.90
12180;DHT22;6153;51.490;6.586;2022-08-30T06:26:57;17.20;99.90
12180;DHT22;6153;51.490;6.586;2022-08-30T06:29:57;17.30;99.90
12180;DHT22;6153;51.490;6.586;2022-08-30T06:32:58;17.20;99.90
12180;DHT22;6153;51.490;6.586;2022-08-30T06:36:05;17.20;99.90
12180;DHT22;6153;51.490;6.586;2022-08-30T06:39:06;17.30;99.90
12180;DHT22;6153;51.490;6.586;2022-08-30T06:42:07;17.40;99.90
12180;DHT22;6153;51.490;6.586;2022-08-30T06:45:07;17.50;99.90
12180;DHT22;6153;51.490;6.586;2022-08-30T06:48:08;17.60;99.90
12180;DHT22;6153;51.490;6.586;2022-08-30T06:51:09;17.80;99.90
12180;DHT22;6153;51.490;6.586;2022-08-30T06:54:09;18.00;99.90
12180;DHT22;6153;51.490;6.586;2022-08-30T06:57:10;18.10;99.90
12180;DHT22;6153;51.490;6.586;2022-08-30T07:00:13;18.10;99.90
12180;DHT22;6153;51.490;6.586;2022-08-30T07:03:14;18.20;99.90
12180;DHT22;6153;51.490;6.586;2022-08-30T07:06:15;18.30;99.90
12180;DHT22;6153;51.490;6.586;2022-08-30T07:09:15;18.40;99.90
12180;DHT22;6153;51.490;6.586;2022-08-30T07:12:16;18.40;99.90
12180;DHT22;6153;51.490;6.586;2022-08-30T07:15:16;18.60;99.90
12180;DHT22;6153;51.490;6.586;2022-08-30T07:18:22;18.60;99.90
12180;DHT22;6153;51.490;6.586;2022-08-30T07:21:42;18.80;99.90
12180;DHT22;6153;51.490;6.586;2022-08-30T07:24:43;18.90;99.90
12180;DHT22;6153;51.490;6.586;2022-08-30T07:27:43;18.80;99.90
12180;DHT22;6153;51.490;6.586;2022-08-30T07:30:45;18.90;99.90
12180;DHT22;6153;51.490;6.586;2022-08-30T07:33:46;19.10;99.90
12180;DHT22;6153;51.490;6.586;2022-08-30T07:36:47;19.20;99.90
12180;DHT22;6153;51.490;6.586;2022-08-30T07:39:47;19.10;99.90
12180;DHT22;6153;51.490;6.586;2022-08-30T07:42:48;19.30;99.90
12180;DHT22;6153;51.490;6.586;2022-08-30T07:45:48;19.50;99.90
12180;DHT22;6153;51.490;6.586;2022-08-30T07:48:49;19.50;99.90
12180;DHT22;6153;51.490;6.586;2022-08-30T07:51:50;19.50;99.90
12180;DHT22;6153;51.490;6.586;2022-08-30T07:54:51;19.80;99.90
12180;DHT22;6153;51.490;6.586;2022-08-30T07:57:51;19.90;99.90
12180;DHT22;6153;51.490;6.586;2022-08-30T08:00:52;19.80;99.90
12180;DHT22;6153;51.490;6.586;2022-08-30T08:03:53;19.90;99.90
12180;DHT22;6153;51.490;6.586;2022-08-30T08:06:53;20.10;99.90
12180;DHT22;6153;51.490;6.586;2022-08-30T08:09:54;19.90;99.90
12180;DHT22;6153;51.490;6.586;2022-08-30T08:12:54;20.00;99.90
12180;DHT22;6153;51.490;6.586;2022-08-30T08:15:55;20.00;99.90
12180;DHT22;6153;51.490;6.586;2022-08-30T08:18:56;20.00;99.90
12180;DHT22;6153;51.490;6.586;2022-08-30T08:21:57;20.20;99.90
12180;DHT22;6153;51.490;6.586;2022-08-30T08:24:59;20.40;99.90
12180;DHT22;6153;51.490;6.586;2022-08-30T08:28:00;20.70;99.90
12180;DHT22;6153;51.490;6.586;2022-08-30T08:31:01;20.70;99.90
12180;DHT22;6153;51.490;6.586;2022-08-30T08:34:03;20.70;99.90
12180;DHT22;6153;51.490;6.586;2022-08-30T08:37:04;20.70;99.90
12180;DHT22;6153;51.490;6.586;2022-08-30T08:40:06;20.60;99.90
12180;DHT22;6153;51.490;6.586;2022-08-30T08:43:10;20.80;99.90
12180;DHT22;6153;51.490;6.586;2022-08-30T08:46:18;21.00;99.90
12180;DHT22;6153;51.490;6.586;2022-08-30T08:49:22;20.90;99.90
12180;DHT22;6153;51.490;6.586;2022-08-30T08:56:17;21.00;99.90
12180;DHT22;6153;51.490;6.586;2022-08-30T08:59:18;21.30;99.90
12180;DHT22;6153;51.490;6.586;2022-08-30T09:02:31;21.40;99.90
12180;DHT22;6153;51.490;6.586;2022-08-30T09:05:35;21.30;99.90
12180;DHT22;6153;51.490;6.586;2022-08-30T09:08:36;21.60;99.90
12180;DHT22;6153;51.490;6.586;2022-08-30T09:11:37;21.40;99.90
12180;DHT22;6153;51.490;6.586;2022-08-30T09:14:39;21.30;99.90
12180;DHT22;6153;51.490;6.586;2022-08-30T09:17:48;21.40;99.90
12180;DHT22;6153;51.490;6.586;2022-08-30T09:20:48;21.50;99.90
12180;DHT22;6153;51.490;6.586;2022-08-30T09:23:55;21.50;99.90
12180;DHT22;6153;51.490;6.586;2022-08-30T09:26:56;21.80;99.90
12180;DHT22;6153;51.490;6.586;2022-08-30T09:33:18;22.60;99.90
12180;DHT22;6153;51.490;6.586;2022-08-30T09:36:27;22.50;99.90
12180;DHT22;6153;51.490;6.586;2022-08-30T09:39:32;22.40;99.90
12180;DHT22;6153;51.490;6.586;2022-08-30T09:42:33;22.30;99.90
12180;DHT22;6153;51.490;6.586;2022-08-30T09:45:38;22.60;99.90
12180;DHT22;6153;51.490;6.586;2022-08-30T09:48:44;22.60;99.90
12180;DHT22;6153;51.490;6.586;2022-08-30T09:51:54;22.70;99.90
12180;DHT22;6153;51.490;6.586;2022-08-30T10:01:35;23.50;99.90
12180;DHT22;6153;51.490;6.586;2022-08-30T10:05:09;23.30;99.90
12180;DHT22;6153;51.490;6.586;2022-08-30T10:11:31;24.00;99.90
12180;DHT22;6153;51.490;6.586;2022-08-30T10:21:10;24.10;99.90
12180;DHT22;6153;51.490;6.586;2022-08-30T10:24:12;24.00;99.90
12180;DHT22;6153;51.490;6.586;2022-08-30T10:27:15;23.90;99.90
12180;DHT22;6153;51.490;6.586;2022-08-30T10:30:17;23.90;99.90
12180;DHT22;6153;51.490;6.586;2022-08-30T10:33:28;24.10;99.90
12180;DHT22;6153;51.490;6.586;2022-08-30T10:36:34;23.90;99.90
12180;DHT22;6153;51.490;6.586;2022-08-30T10:39:39;23.70;99.90
12180;DHT22;6153;51.490;6.586;2022-08-30T10:42:40;23.60;99.90
12180;DHT22;6153;51.490;6.586;2022-08-30T10:45:41;23.50;99.90
12180;DHT22;6153;51.490;6.586;2022-08-30T10:48:44;23.80;99.90
12180;DHT22;6153;51.490;6.586;2022-08-30T10:57:49;24.50;99.90
12180;DHT22;6153;51.490;6.586;2022-08-30T11:01:41;24.70;99.90
12180;DHT22;6153;51.490;6.586;2022-08-30T11:04:20;24.80;99.90
12180;DHT22;6153;51.490;6.586;2022-08-30T11:07:26;24.90;99.90
12180;DHT22;6153;51.490;6.586;2022-08-30T11:13:40;24.90;99.90
12180;DHT22;6153;51.490;6.586;2022-08-30T11:16:41;24.70;99.90
12180;DHT22;6153;51.490;6.586;2022-08-30T11:19:43;24.60;99.90
12180;DHT22;6153;51.490;6.586;2022-08-30T11:22:43;25.20;99.90
12180;DHT22;6153;51.490;6.586;2022-08-30T11:26:10;25.10;99.90
12180;DHT22;6153;51.490;6.586;2022-08-30T11:29:29;25.20;99.90
12180;DHT22;6153;51.490;6.586;2022-08-30T11:36:06;26.30;99.90
12180;DHT22;6153;51.490;6.586;2022-08-30T11:39:08;26.40;99.90
12180;DHT22;6153;51.490;6.586;2022-08-30T11:42:24;25.60;99.90
12180;DHT22;6153;51.490;6.586;2022-08-30T11:48:44;25.50;99.90
12180;DHT22;6153;51.490;6.586;2022-08-30T12:01:15;25.60;99.90
12180;DHT22;6153;51.490;6.586;2022-08-30T12:10:54;25.30;99.90
12180;DHT22;6153;51.490;6.586;2022-08-30T12:13:55;25.70;99.90
12180;DHT22;6153;51.490;6.586;2022-08-30T12:16:56;25.30;99.90
12180;DHT22;6153;51.490;6.586;2022-08-30T12:20:58;25.20;99.90
12180;DHT22;6153;51.490;6.586;2022-08-30T12:26:56;25.30;99.90
12180;DHT22;6153;51.490;6.586;2022-08-30T12:29:59;25.40;99.90
12180;DHT22;6153;51.490;6.586;2022-08-30T12:33:00;25.30;99.90
12180;DHT22;6153;51.490;6.586;2022-08-30T12:36:01;25.20;99.90
12180;DHT22;6153;51.490;6.586;2022-08-30T12:39:10;25.40;99.90
12180;DHT22;6153;51.490;6.586;2022-08-30T12:45:13;25.80;99.80
12180;DHT22;6153;51.490;6.586;2022-08-30T12:48:14;26.10;99.30
12180;DHT22;6153;51.490;6.586;2022-08-30T12:51:33;26.00;98.50
12180;DHT22;6153;51.490;6.586;2022-08-30T12:54:34;26.30;99.00
12180;DHT22;6153;51.490;6.586;2022-08-30T13:00:43;26.80;98.90
12180;DHT22;6153;51.490;6.586;2022-08-30T13:07:00;26.20;98.90
12180;DHT22;6153;51.490;6.586;2022-08-30T13:10:05;25.80;99.30
12180;DHT22;6153;51.490;6.586;2022-08-30T13:13:06;25.70;99.40
12180;DHT22;6153;51.490;6.586;2022-08-30T13:16:09;26.10;98.60
12180;DHT22;6153;51.490;6.586;2022-08-30T13:22:27;26.20;99.30
12180;DHT22;6153;51.490;6.586;2022-08-30T13:25:28;26.70;98.20
12180;DHT22;6153;51.490;6.586;2022-08-30T13:28:30;26.80;97.40
12180;DHT22;6153;51.490;6.586;2022-08-30T13:31:30;26.80;97.70
12180;DHT22;6153;51.490;6.586;2022-08-30T13:34:31;26.80;97.50
12180;DHT22;6153;51.490;6.586;2022-08-30T13:37:34;26.80;97.40
12180;DHT22;6153;51.490;6.586;2022-08-30T13:40:35;26.90;97.70
12180;DHT22;6153;51.490;6.586;2022-08-30T13:43:35;27.60;97.00
12180;DHT22;6153;51.490;6.586;2022-08-30T13:46:38;26.80;96.70
12180;DHT22;6153;51.490;6.586;2022-08-30T13:49:40;26.90;97.20
12180;DHT22;6153;51.490;6.586;2022-08-30T13:52:42;27.10;97.00
12180;DHT22;6153;51.490;6.586;2022-08-30T13:55:43;26.70;96.80
12180;DHT22;6153;51.490;6.586;2022-08-30T13:58:43;26.50;97.10
12180;DHT22;6153;51.490;6.586;2022-08-30T14:01:44;26.70;97.20
12180;DHT22;6153;51.490;6.586;2022-08-30T14:04:45;26.50;96.90
12180;DHT22;6153;51.490;6.586;2022-08-30T14:07:45;27.00;96.40
12180;DHT22;6153;51.490;6.586;2022-08-30T14:10:46;26.90;96.10
12180;DHT22;6153;51.490;6.586;2022-08-30T14:13:47;26.70;96.40
12180;DHT22;6153;51.490;6.586;2022-08-30T14:16:47;26.40;96.50
12180;DHT22;6153;51.490;6.586;2022-08-30T14:19:48;26.30;96.90
12180;DHT22;6153;51.490;6.586;2022-08-30T14:22:48;26.80;96.20
12180;DHT22;6153;51.490;6.586;2022-08-30T14:25:49;26.40;96.20
12180;DHT22;6153;51.490;6.586;2022-08-30T14:28:50;26.50;96.20
12180;DHT22;6153;51.490;6.586;2022-08-30T14:31:50;26.70;95.90
12180;DHT22;6153;51.490;6.586;2022-08-30T14:34:51;26.60;96.00
12180;DHT22;6153;51.490;6.586;2022-08-30T14:37:51;26.50;95.80
12180;DHT22;6153;51.490;6.586;2022-08-30T14:40:51;26.50;95.70
12180;DHT22;6153;51.490;6.586;2022-08-30T14:43:52;26.40;95.30
12180;DHT22;6153;51.490;6.586;2022-08-30T14:46:53;26.40;95.60
12180;DHT22;6153;51.490;6.586;2022-08-30T14:49:54;26.40;95.40
12180;DHT22;6153;51.490;6.586;2022-08-30T14:52:58;26.50;95.50
12180;DHT22;6153;51.490;6.586;2022-08-30T14:55:58;26.40;94.70
12180;DHT22;6153;51.490;6.586;2022-08-30T14:58:59;26.20;94.80
12180;DHT22;6153;51.490;6.586;2022-08-30T15:02:02;26.50;94.80
12180;DHT22;6153;51.490;6.586;2022-08-30T15:05:02;26.50;94.40
12180;DHT22;6153;51.490;6.586;2022-08-30T15:08:03;26.70;94.70
12180;DHT22;6153;51.490;6.586;2022-08-30T15:11:07;26.80;94.40
12180;DHT22;6153;51.490;6.586;2022-08-30T15:14:08;26.50;94.30
12180;DHT22;6153;51.490;6.586;2022-08-30T15:17:08;26.20;94.70
12180;DHT22;6153;51.490;6.586;2022-08-30T15:20:09;26.10;94.90
12180;DHT22;6153;51.490;6.586;2022-08-30T15:23:10;26.10;95.10
12180;DHT22;6153;51.490;6.586;2022-08-30T15:26:10;26.30;95.20
12180;DHT22;6153;51.490;6.586;2022-08-30T15:29:12;26.20;95.10
12180;DHT22;6153;51.490;6.586;2022-08-30T15:32:15;25.90;95.40
12180;DHT22;6153;51.490;6.586;2022-08-30T15:35:15;26.00;95.20
12180;DHT22;6153;51.490;6.586;2022-08-30T15:38:16;25.80;95.30
12180;DHT22;6153;51.490;6.586;2022-08-30T15:41:16;25.70;95.30
12180;DHT22;6153;51.490;6.586;2022-08-30T15:44:16;25.70;95.20
12180;DHT22;6153;51.490;6.586;2022-08-30T15:47:21;25.40;95.00
12180;DHT22;6153;51.490;6.586;2022-08-30T15:50:22;25.60;94.80
12180;DHT22;6153;51.490;6.586;2022-08-30T15:53:22;25.70;94.70
12180;DHT22;6153;51.490;6.586;2022-08-30T15:56:23;26.10;94.50
12180;DHT22;6153;51.490;6.586;2022-08-30T15:59:26;26.20;94.50
12180;DHT22;6153;51.490;6.586;2022-08-30T16:02:27;26.00;94.50
12180;DHT22;6153;51.490;6.586;2022-08-30T16:05:27;26.00;94.60
12180;DHT22;6153;51.490;6.586;2022-08-30T16:08:28;26.10;94.70
12180;DHT22;6153;51.490;6.586;2022-08-30T16:11:29;26.20;94.40
12180;DHT22;6153;51.490;6.586;2022-08-30T16:14:29;25.90;94.50
12180;DHT22;6153;51.490;6.586;2022-08-30T16:17:30;25.60;94.60
12180;DHT22;6153;51.490;6.586;2022-08-30T16:20:31;25.40;94.90
12180;DHT22;6153;51.490;6.586;2022-08-30T16:23:32;25.50;94.80
12180;DHT22;6153;51.490;6.586;2022-08-30T16:26:33;25.50;95.00
12180;DHT22;6153;51.490;6.586;2022-08-30T16:29:34;25.40;94.90
12180;DHT22;6153;51.490;6.586;2022-08-30T16:32:34;25.30;95.00
12180;DHT22;6153;51.490;6.586;2022-08-30T16:35:35;25.10;95.00
12180;DHT22;6153;51.490;6.586;2022-08-30T16:38:36;25.00;95.10
12180;DHT22;6153;51.490;6.586;2022-08-30T16:41:36;24.90;95.10
12180;DHT22;6153;51.490;6.586;2022-08-30T16:44:37;24.80;95.20
12180;DHT22;6153;51.490;6.586;2022-08-30T16:47:37;24.70;95.30
12180;DHT22;6153;51.490;6.586;2022-08-30T16:50:38;24.70;95.60
12180;DHT22;6153;51.490;6.586;2022-08-30T16:53:39;24.60;95.70
12180;DHT22;6153;51.490;6.586;2022-08-30T16:56:40;24.50;95.70
12180;DHT22;6153;51.490;6.586;2022-08-30T16:59:40;24.50;95.70
12180;DHT22;6153;51.490;6.586;2022-08-30T17:02:41;24.50;95.70
12180;DHT22;6153;51.490;6.586;2022-08-30T17:05:41;24.40;95.70
12180;DHT22;6153;51.490;6.586;2022-08-30T17:08:42;24.40;95.90
12180;DHT22;6153;51.490;6.586;2022-08-30T17:11:43;24.30;95.80
12180;DHT22;6153;51.490;6.586;2022-08-30T17:14:43;24.30;95.90
12180;DHT22;6153;51.490;6.586;2022-08-30T17:17:44;24.20;95.70
12180;DHT22;6153;51.490;6.586;2022-08-30T17:20:45;24.20;95.80
12180;DHT22;6153;51.490;6.586;2022-08-30T17:23:46;24.10;95.70
12180;DHT22;6153;51.490;6.586;2022-08-30T17:26:46;24.10;95.80
12180;DHT22;6153;51.490;6.586;2022-08-30T17:29:47;24.10;95.80
12180;DHT22;6153;51.490;6.586;2022-08-30T17:32:47;24.10;95.70
12180;DHT22;6153;51.490;6.586;2022-08-30T17:35:48;24.00;95.70
12180;DHT22;6153;51.490;6.586;2022-08-30T17:38:48;24.00;95.80
12180;DHT22;6153;51.490;6.586;2022-08-30T17:41:49;23.90;96.00
12180;DHT22;6153;51.490;6.586;2022-08-30T17:44:50;23.80;96.20
12180;DHT22;6153;51.490;6.586;2022-08-30T17:47:50;23.70;96.20
12180;DHT22;6153;51.490;6.586;2022-08-30T17:50:55;23.70;96.30
12180;DHT22;6153;51.490;6.586;2022-08-30T17:53:56;23.60;96.30
12180;DHT22;6153;51.490;6.586;2022-08-30T17:56:58;23.60;96.40
12180;DHT22;6153;51.490;6.586;2022-08-30T17:59:58;23.60;96.60
12180;DHT22;6153;51.490;6.586;2022-08-30T18:02:59;23.50;96.80
12180;DHT22;6153;51.490;6.586;2022-08-30T18:06:00;23.40;96.90
12180;DHT22;6153;51.490;6.586;2022-08-30T18:09:03;23.30;97.00
12180;DHT22;6153;51.490;6.586;2022-08-30T18:12:04;23.20;97.10
12180;DHT22;6153;51.490;6.586;2022-08-30T18:15:05;23.20;97.20
12180;DHT22;6153;51.490;6.586;2022-08-30T18:18:06;23.10;97.20
12180;DHT22;6153;51.490;6.586;2022-08-30T18:21:12;23.00;97.40
12180;DHT22;6153;51.490;6.586;2022-08-30T18:24:14;22.90;97.50
12180;DHT22;6153;51.490;6.586;2022-08-30T18:27:15;22.80;97.60
12180;DHT22;6153;51.490;6.586;2022-08-30T18:30:16;22.80;97.60
12180;DHT22;6153;51.490;6.586;2022-08-30T18:33:17;22.70;97.70
12180;DHT22;6153;51.490;6.586;2022-08-30T18:36:19;22.70;97.90
12180;DHT22;6153;51.490;6.586;2022-08-30T18:39:19;22.60;98.00
12180;DHT22;6153;51.490;6.586;2022-08-30T18:42:21;22.60;98.10
12180;DHT22;6153;51.490;6.586;2022-08-30T18:45:21;22.50;98.10
12180;DHT22;6153;51.490;6.586;2022-08-30T18:48:23;22.50;98.20
12180;DHT22;6153;51.490;6.586;2022-08-30T18:51:23;22.40;98.30
12180;DHT22;6153;51.490;6.586;2022-08-30T18:54:24;22.30;98.50
12180;DHT22;6153;51.490;6.586;2022-08-30T18:57:25;22.20;98.50
12180;DHT22;6153;51.490;6.586;2022-08-30T19:00:25;22.20;98.70
12180;DHT22;6153;51.490;6.586;2022-08-30T19:03:26;22.20;98.80
12180;DHT22;6153;51.490;6.586;2022-08-30T19:06:27;22.10;99.10
12180;DHT22;6153;51.490;6.586;2022-08-30T19:09:28;22.00;99.10
12180;DHT22;6153;51.490;6.586;2022-08-30T19:12:28;22.00;99.20
12180;DHT22;6153;51.490;6.586;2022-08-30T19:15:30;22.00;99.20
12180;DHT22;6153;51.490;6.586;2022-08-30T19:18:34;22.00;99.30
12180;DHT22;6153;51.490;6.586;2022-08-30T19:21:34;21.90;99.50
12180;DHT22;6153;51.490;6.586;2022-08-30T19:24:35;21.90;99.60
12180;DHT22;6153;51.490;6.586;2022-08-30T19:27:36;21.90;99.70
12180;DHT22;6153;51.490;6.586;2022-08-30T19:30:38;21.80;99.80
12180;DHT22;6153;51.490;6.586;2022-08-30T19:33:38;21.80;99.90
12180;DHT22;6153;51.490;6.586;2022-08-30T19:36:40;21.80;99.90
12180;DHT22;6153;51.490;6.586;2022-08-30T19:39:40;21.80;99.90
12180;DHT22;6153;51.490;6.586;2022-08-30T19:42:42;21.70;99.90
12180;DHT22;6153;51.490;6.586;2022-08-30T19:45:43;21.70;99.90
12180;DHT22;6153;51.490;6.586;2022-08-30T19:48:43;21.60;99.90
12180;DHT22;6153;51.490;6.586;2022-08-30T19:51:44;21.50;99.90
12180;DHT22;6153;51.490;6.586;2022-08-30T19:54:45;21.50;99.90
12180;DHT22;6153;51.490;6.586;2022-08-30T19:57:45;21.40;99.90
12180;DHT22;6153;51.490;6.586;2022-08-30T20:00:46;21.40;99.90
12180;DHT22;6153;51.490;6.586;2022-08-30T20:03:47;21.30;99.90
12180;DHT22;6153;51.490;6.586;2022-08-30T20:06:47;21.20;99.90
12180;DHT22;6153;51.490;6.586;2022-08-30T20:09:49;21.20;99.90
12180;DHT22;6153;51.490;6.586;2022-08-30T20:12:50;21.20;99.90
12180;DHT22;6153;51.490;6.586;2022-08-30T20:15:52;21.10;99.90
12180;DHT22;6153;51.490;6.586;2022-08-30T20:18:53;21.10;99.90
12180;DHT22;6153;51.490;6.586;2022-08-30T20:21:54;21.10;99.90
12180;DHT22;6153;51.490;6.586;2022-08-30T20:24:55;21.00;99.90
12180;DHT22;6153;51.490;6.586;2022-08-30T20:27:56;21.00;99.90
12180;DHT22;6153;51.490;6.586;2022-08-30T20:30:56;20.90;99.90
12180;DHT22;6153;51.490;6.586;2022-08-30T20:33:57;20.90;99.90
12180;DHT22;6153;51.490;6.586;2022-08-30T20:36:57;20.80;99.90
12180;DHT22;6153;51.490;6.586;2022-08-30T20:39:59;20.80;99.90